sensor_id;sensor_type;location;lat;lon;timestamp;pressure;altitude;pressure_sealevel;temperature;humidity
22257;BME280;11297;42.686;23.374;2023-02-19T00:00:30;95261.72;;;10.98;45.79
22257;BME280;11297;42.686;23.374;2023-02-19T00:02:55;95269.97;;;11.00;45.26
22257;BME280;11297;42.686;23.374;2023-02-19T00:05:22;95269.97;;;11.00;45.43
22257;BME280;11297;42.686;23.374;2023-02-19T00:07:47;95266.78;;;11.03;45.02
22257;BME280;11297;42.686;23.374;2023-02-19T00:10:12;95271.09;;;11.08;45.60
22257;BME280;11297;42.686;23.374;2023-02-19T00:12:38;95264.06;;;11.08;45.73
22257;BME280;11297;42.686;23.374;2023-02-19T00:15:03;95260.34;;;11.01;45.67
22257;BME280;11297;42.686;23.374;2023-02-19T00:17:30;95260.63;;;10.99;45.36
22257;BME280;11297;42.686;23.374;2023-02-19T00:19:55;95267.84;;;11.02;45.76
22257;BME280;11297;42.686;23.374;2023-02-19T00:22:21;95260.81;;;11.03;45.79
22257;BME280;11297;42.686;23.374;2023-02-19T00:24:47;95252.31;;;11.11;45.57
22257;BME280;11297;42.686;23.374;2023-02-19T00:27:12;95267.97;;;11.19;45.39
22257;BME280;11297;42.686;23.374;2023-02-19T00:29:38;95246.75;;;11.26;44.98
22257;BME280;11297;42.686;23.374;2023-02-19T00:32:03;95249.50;;;11.29;45.18
22257;BME280;11297;42.686;23.374;2023-02-19T00:34:29;95250.00;;;11.31;44.72
22257;BME280;11297;42.686;23.374;2023-02-19T00:36:54;95245.84;;;11.30;44.99
22257;BME280;11297;42.686;23.374;2023-02-19T00:39:19;95249.22;;;11.31;45.19
22257;BME280;11297;42.686;23.374;2023-02-19T00:41:45;95246.63;;;11.31;44.88
22257;BME280;11297;42.686;23.374;2023-02-19T00:44:11;95249.72;;;11.33;44.40
22257;BME280;11297;42.686;23.374;2023-02-19T00:46:40;95235.09;;;11.23;44.61
22257;BME280;11297;42.686;23.374;2023-02-19T00:49:07;95257.09;;;11.17;45.10
22257;BME280;11297;42.686;23.374;2023-02-19T00:51:36;95227.88;;;11.20;44.94
22257;BME280;11297;42.686;23.374;2023-02-19T00:54:02;95227.28;;;11.23;45.47
22257;BME280;11297;42.686;23.374;2023-02-19T00:56:28;95230.03;;;11.18;45.35
22257;BME280;11297;42.686;23.374;2023-02-19T00:58:54;95221.78;;;11.16;44.76
22257;BME280;11297;42.686;23.374;2023-02-19T01:01:20;95226.31;;;11.11;45.25
22257;BME280;11297;42.686;23.374;2023-02-19T01:03:46;95220.47;;;11.05;44.88
22257;BME280;11297;42.686;23.374;2023-02-19T01:06:14;95236.19;;;11.00;45.36
22257;BME280;11297;42.686;23.374;2023-02-19T01:08:40;95214.44;;;10.96;45.06
22257;BME280;11297;42.686;23.374;2023-02-19T01:11:07;95233.00;;;11.03;44.82
22257;BME280;11297;42.686;23.374;2023-02-19T01:13:33;95226.53;;;11.01;45.00
22257;BME280;11297;42.686;23.374;2023-02-19T01:16:18;95233.28;;;11.02;44.92
22257;BME280;11297;42.686;23.374;2023-02-19T01:18:44;95224.72;;;11.01;44.92
22257;BME280;11297;42.686;23.374;2023-02-19T01:21:21;95216.75;;;10.98;44.71
22257;BME280;11297;42.686;23.374;2023-02-19T01:23:49;95217.53;;;10.98;44.96
22257;BME280;11297;42.686;23.374;2023-02-19T01:26:17;95219.00;;;10.91;45.20
22257;BME280;11297;42.686;23.374;2023-02-19T01:28:43;95233.19;;;10.85;45.41
22257;BME280;11297;42.686;23.374;2023-02-19T01:31:13;95241.59;;;10.69;45.98
22257;BME280;11297;42.686;23.374;2023-02-19T01:33:39;95230.50;;;10.42;46.30
22257;BME280;11297;42.686;23.374;2023-02-19T01:36:08;95223.72;;;10.19;47.24
22257;BME280;11297;42.686;23.374;2023-02-19T01:38:33;95234.50;;;10.12;47.53
22257;BME280;11297;42.686;23.374;2023-02-19T01:41:01;95234.81;;;10.11;47.89
22257;BME280;11297;42.686;23.374;2023-02-19T01:43:28;95253.63;;;10.16;47.91
22257;BME280;11297;42.686;23.374;2023-02-19T01:45:53;95258.31;;;10.28;46.93
22257;BME280;11297;42.686;23.374;2023-02-19T01:48:29;95262.94;;;10.31;47.16
22257;BME280;11297;42.686;23.374;2023-02-19T01:53:26;95262.25;;;10.25;47.31
22257;BME280;11297;42.686;23.374;2023-02-19T01:55:55;95266.69;;;10.25;47.24
22257;BME280;11297;42.686;23.374;2023-02-19T01:58:24;95266.28;;;10.31;47.91
22257;BME280;11297;42.686;23.374;2023-02-19T02:00:51;95261.59;;;10.33;47.30
22257;BME280;11297;42.686;23.374;2023-02-19T02:03:17;95256.28;;;10.38;46.97
22257;BME280;11297;42.686;23.374;2023-02-19T02:06:01;95262.81;;;10.49;46.87
22257;BME280;11297;42.686;23.374;2023-02-19T02:08:29;95260.13;;;10.54;47.15
22257;BME280;11297;42.686;23.374;2023-02-19T02:11:13;95253.75;;;10.60;47.04
22257;BME280;11297;42.686;23.374;2023-02-19T02:13:39;95255.72;;;10.41;47.36
22257;BME280;11297;42.686;23.374;2023-02-19T02:18:58;95271.13;;;10.11;47.99
22257;BME280;11297;42.686;23.374;2023-02-19T02:21:34;95270.75;;;10.04;48.13
22257;BME280;11297;42.686;23.374;2023-02-19T02:29:50;95271.72;;;9.95;48.45
22257;BME280;11297;42.686;23.374;2023-02-19T02:32:28;95260.28;;;9.96;48.30
22257;BME280;11297;42.686;23.374;2023-02-19T02:35:00;95260.72;;;9.84;48.37
22257;BME280;11297;42.686;23.374;2023-02-19T02:37:31;95260.53;;;9.81;48.56
22257;BME280;11297;42.686;23.374;2023-02-19T02:40:01;95238.06;;;9.63;48.87
22257;BME280;11297;42.686;23.374;2023-02-19T02:42:27;95258.69;;;9.68;49.27
22257;BME280;11297;42.686;23.374;2023-02-19T02:44:56;95229.41;;;9.54;49.67
22257;BME280;11297;42.686;23.374;2023-02-19T02:47:52;95243.03;;;9.59;49.14
22257;BME280;11297;42.686;23.374;2023-02-19T02:50:24;95254.94;;;9.74;49.71
22257;BME280;11297;42.686;23.374;2023-02-19T02:52:53;95246.59;;;9.77;49.17
22257;BME280;11297;42.686;23.374;2023-02-19T02:55:42;95248.59;;;9.66;49.28
22257;BME280;11297;42.686;23.374;2023-02-19T02:58:09;95251.31;;;9.75;48.72
22257;BME280;11297;42.686;23.374;2023-02-19T03:00:36;95259.16;;;9.70;49.14
22257;BME280;11297;42.686;23.374;2023-02-19T03:03:24;95272.25;;;9.78;48.85
22257;BME280;11297;42.686;23.374;2023-02-19T03:05:55;95268.22;;;9.86;48.61
22257;BME280;11297;42.686;23.374;2023-02-19T03:08:28;95282.09;;;9.95;48.32
22257;BME280;11297;42.686;23.374;2023-02-19T03:11:04;95290.03;;;9.85;48.58
22257;BME280;11297;42.686;23.374;2023-02-19T03:14:00;95279.00;;;9.79;48.34
22257;BME280;11297;42.686;23.374;2023-02-19T03:16:47;95277.25;;;9.75;48.98
22257;BME280;11297;42.686;23.374;2023-02-19T03:19:34;95281.88;;;9.91;48.14
22257;BME280;11297;42.686;23.374;2023-02-19T03:22:16;95289.31;;;9.98;48.23
22257;BME280;11297;42.686;23.374;2023-02-19T03:24:54;95282.66;;;10.05;47.93
22257;BME280;11297;42.686;23.374;2023-02-19T03:27:41;95288.25;;;9.99;48.11
22257;BME280;11297;42.686;23.374;2023-02-19T03:30:15;95296.22;;;10.02;48.45
22257;BME280;11297;42.686;23.374;2023-02-19T03:32:50;95297.38;;;9.96;48.47
22257;BME280;11297;42.686;23.374;2023-02-19T03:35:36;95297.16;;;9.93;48.31
22257;BME280;11297;42.686;23.374;2023-02-19T03:38:28;95307.31;;;9.89;47.99
22257;BME280;11297;42.686;23.374;2023-02-19T03:40:58;95313.78;;;9.92;48.63
22257;BME280;11297;42.686;23.374;2023-02-19T03:43:36;95300.97;;;9.82;48.71
22257;BME280;11297;42.686;23.374;2023-02-19T03:49:07;95314.19;;;9.99;48.11
22257;BME280;11297;42.686;23.374;2023-02-19T03:51:44;95326.38;;;9.98;48.17
22257;BME280;11297;42.686;23.374;2023-02-19T03:54:33;95326.59;;;10.02;48.57
22257;BME280;11297;42.686;23.374;2023-02-19T03:57:11;95316.88;;;9.94;48.22
22257;BME280;11297;42.686;23.374;2023-02-19T03:59:51;95323.97;;;9.88;48.82
22257;BME280;11297;42.686;23.374;2023-02-19T04:03:26;95329.84;;;9.94;49.05
22257;BME280;11297;42.686;23.374;2023-02-19T04:05:24;95319.47;;;9.94;48.62
22257;BME280;11297;42.686;23.374;2023-02-19T04:07:53;95318.25;;;10.04;48.78
22257;BME280;11297;42.686;23.374;2023-02-19T04:10:20;95313.81;;;10.05;48.83
22257;BME280;11297;42.686;23.374;2023-02-19T04:12:56;95332.84;;;10.14;48.23
22257;BME280;11297;42.686;23.374;2023-02-19T04:15:27;95338.03;;;10.14;48.61
22257;BME280;11297;42.686;23.374;2023-02-19T04:18:06;95333.78;;;10.18;48.71
22257;BME280;11297;42.686;23.374;2023-02-19T04:20:37;95329.75;;;10.25;47.88
22257;BME280;11297;42.686;23.374;2023-02-19T04:23:03;95331.59;;;10.38;47.85
22257;BME280;11297;42.686;23.374;2023-02-19T04:25:30;95326.97;;;10.22;48.15
22257;BME280;11297;42.686;23.374;2023-02-19T04:27:56;95331.13;;;10.09;48.60
22257;BME280;11297;42.686;23.374;2023-02-19T04:30:23;95330.47;;;9.86;48.93
22257;BME280;11297;42.686;23.374;2023-02-19T04:32:48;95331.47;;;9.58;49.52
22257;BME280;11297;42.686;23.374;2023-02-19T04:35:14;95335.16;;;9.39;49.93
22257;BME280;11297;42.686;23.374;2023-02-19T04:37:39;95336.09;;;9.29;50.27
22257;BME280;11297;42.686;23.374;2023-02-19T04:40:05;95341.88;;;9.08;50.90
22257;BME280;11297;42.686;23.374;2023-02-19T04:42:30;95340.94;;;9.17;51.42
22257;BME280;11297;42.686;23.374;2023-02-19T04:44:56;95342.63;;;9.08;51.12
22257;BME280;11297;42.686;23.374;2023-02-19T04:47:21;95353.22;;;8.94;51.44
22257;BME280;11297;42.686;23.374;2023-02-19T04:49:46;95342.09;;;8.93;51.45
22257;BME280;11297;42.686;23.374;2023-02-19T04:52:12;95341.16;;;9.03;51.75
22257;BME280;11297;42.686;23.374;2023-02-19T04:54:37;95335.00;;;9.17;51.37
22257;BME280;11297;42.686;23.374;2023-02-19T04:57:03;95345.91;;;9.32;51.00
22257;BME280;11297;42.686;23.374;2023-02-19T04:59:28;95336.09;;;9.29;51.20
22257;BME280;11297;42.686;23.374;2023-02-19T05:01:54;95351.94;;;9.28;51.10
22257;BME280;11297;42.686;23.374;2023-02-19T05:04:19;95355.56;;;9.27;50.48
22257;BME280;11297;42.686;23.374;2023-02-19T05:06:44;95352.16;;;9.13;51.32
22257;BME280;11297;42.686;23.374;2023-02-19T05:09:10;95358.44;;;9.25;51.47
22257;BME280;11297;42.686;23.374;2023-02-19T05:11:35;95344.84;;;9.33;50.92
22257;BME280;11297;42.686;23.374;2023-02-19T05:14:01;95351.69;;;9.43;51.03
22257;BME280;11297;42.686;23.374;2023-02-19T05:16:26;95345.38;;;9.49;50.38
22257;BME280;11297;42.686;23.374;2023-02-19T05:18:52;95356.84;;;9.61;50.20
22257;BME280;11297;42.686;23.374;2023-02-19T05:21:17;95347.53;;;9.60;49.95
22257;BME280;11297;42.686;23.374;2023-02-19T05:23:43;95348.63;;;9.72;49.65
22257;BME280;11297;42.686;23.374;2023-02-19T05:26:17;95366.91;;;9.81;49.73
22257;BME280;11297;42.686;23.374;2023-02-19T05:28:45;95360.53;;;9.73;49.53
22257;BME280;11297;42.686;23.374;2023-02-19T05:31:11;95358.63;;;9.79;49.75
22257;BME280;11297;42.686;23.374;2023-02-19T05:33:37;95364.19;;;9.72;49.73
22257;BME280;11297;42.686;23.374;2023-02-19T05:36:08;95382.53;;;9.76;49.35
22257;BME280;11297;42.686;23.374;2023-02-19T05:38:34;95389.25;;;9.77;49.25
22257;BME280;11297;42.686;23.374;2023-02-19T05:41:18;95384.69;;;9.87;49.58
22257;BME280;11297;42.686;23.374;2023-02-19T05:43:45;95392.53;;;10.01;49.54
22257;BME280;11297;42.686;23.374;2023-02-19T05:46:13;95393.03;;;10.16;49.14
22257;BME280;11297;42.686;23.374;2023-02-19T05:48:38;95378.03;;;10.26;48.90
22257;BME280;11297;42.686;23.374;2023-02-19T05:51:06;95378.44;;;10.47;48.18
22257;BME280;11297;42.686;23.374;2023-02-19T05:53:32;95392.16;;;10.74;47.44
22257;BME280;11297;42.686;23.374;2023-02-19T05:55:58;95375.09;;;10.95;47.36
22257;BME280;11297;42.686;23.374;2023-02-19T05:58:24;95396.84;;;11.12;47.33
22257;BME280;11297;42.686;23.374;2023-02-19T06:00:49;95389.66;;;11.31;46.26
22257;BME280;11297;42.686;23.374;2023-02-19T06:03:15;95382.19;;;11.51;46.17
22257;BME280;11297;42.686;23.374;2023-02-19T06:05:40;95388.16;;;11.51;45.73
22257;BME280;11297;42.686;23.374;2023-02-19T06:08:05;95403.78;;;11.73;45.58
22257;BME280;11297;42.686;23.374;2023-02-19T06:10:31;95399.78;;;11.97;44.85
22257;BME280;11297;42.686;23.374;2023-02-19T06:12:56;95414.03;;;12.22;44.24
22257;BME280;11297;42.686;23.374;2023-02-19T06:15:22;95417.66;;;12.42;44.17
22257;BME280;11297;42.686;23.374;2023-02-19T06:17:47;95414.97;;;12.56;43.93
22257;BME280;11297;42.686;23.374;2023-02-19T06:20:13;95405.06;;;12.75;43.53
22257;BME280;11297;42.686;23.374;2023-02-19T06:22:38;95407.31;;;12.98;43.27
22257;BME280;11297;42.686;23.374;2023-02-19T06:25:04;95406.56;;;13.14;42.65
22257;BME280;11297;42.686;23.374;2023-02-19T06:27:32;95408.28;;;13.27;42.05
22257;BME280;11297;42.686;23.374;2023-02-19T06:29:57;95409.06;;;13.36;42.27
22257;BME280;11297;42.686;23.374;2023-02-19T06:32:23;95407.53;;;13.43;41.78
22257;BME280;11297;42.686;23.374;2023-02-19T06:34:48;95410.91;;;13.52;41.61
22257;BME280;11297;42.686;23.374;2023-02-19T06:37:13;95391.09;;;13.43;41.79
22257;BME280;11297;42.686;23.374;2023-02-19T06:39:39;95414.41;;;13.56;41.29
22257;BME280;11297;42.686;23.374;2023-02-19T06:42:04;95398.28;;;13.46;41.25
22257;BME280;11297;42.686;23.374;2023-02-19T06:44:29;95414.13;;;13.49;41.60
22257;BME280;11297;42.686;23.374;2023-02-19T06:46:55;95412.72;;;13.52;41.55
22257;BME280;11297;42.686;23.374;2023-02-19T06:49:20;95416.41;;;13.59;41.37
22257;BME280;11297;42.686;23.374;2023-02-19T06:51:46;95417.34;;;13.88;40.97
22257;BME280;11297;42.686;23.374;2023-02-19T06:54:11;95414.53;;;14.02;40.54
22257;BME280;11297;42.686;23.374;2023-02-19T06:56:38;95417.31;;;14.14;40.51
22257;BME280;11297;42.686;23.374;2023-02-19T06:59:08;95415.88;;;14.41;40.14
22257;BME280;11297;42.686;23.374;2023-02-19T07:01:35;95428.13;;;14.58;39.72
22257;BME280;11297;42.686;23.374;2023-02-19T07:04:01;95425.34;;;14.54;39.66
22257;BME280;11297;42.686;23.374;2023-02-19T07:06:29;95430.34;;;14.76;39.06
22257;BME280;11297;42.686;23.374;2023-02-19T07:08:56;95426.78;;;14.81;39.27
22257;BME280;11297;42.686;23.374;2023-02-19T07:11:22;95426.44;;;14.90;39.20
22257;BME280;11297;42.686;23.374;2023-02-19T07:13:47;95431.38;;;15.21;38.29
22257;BME280;11297;42.686;23.374;2023-02-19T07:16:13;95420.66;;;15.34;38.35
22257;BME280;11297;42.686;23.374;2023-02-19T07:18:40;95415.44;;;15.54;38.21
22257;BME280;11297;42.686;23.374;2023-02-19T07:21:08;95411.22;;;15.82;37.75
22257;BME280;11297;42.686;23.374;2023-02-19T07:23:34;95407.66;;;15.98;37.67
22257;BME280;11297;42.686;23.374;2023-02-19T07:26:01;95406.69;;;16.23;36.99
22257;BME280;11297;42.686;23.374;2023-02-19T07:28:26;95391.13;;;16.50;36.74
22257;BME280;11297;42.686;23.374;2023-02-19T07:30:52;95388.84;;;16.73;36.28
22257;BME280;11297;42.686;23.374;2023-02-19T07:33:18;95393.09;;;17.01;36.31
22257;BME280;11297;42.686;23.374;2023-02-19T07:35:47;95386.19;;;17.32;35.53
22257;BME280;11297;42.686;23.374;2023-02-19T07:38:17;95389.31;;;17.61;34.91
22257;BME280;11297;42.686;23.374;2023-02-19T07:40:54;95381.44;;;18.04;34.78
22257;BME280;11297;42.686;23.374;2023-02-19T07:43:20;95380.78;;;18.49;33.84
22257;BME280;11297;42.686;23.374;2023-02-19T07:45:46;95383.34;;;18.76;33.77
22257;BME280;11297;42.686;23.374;2023-02-19T07:48:11;95384.53;;;18.79;32.92
22257;BME280;11297;42.686;23.374;2023-02-19T07:50:37;95384.19;;;18.80;33.37
22257;BME280;11297;42.686;23.374;2023-02-19T07:53:02;95384.03;;;19.04;33.15
22257;BME280;11297;42.686;23.374;2023-02-19T07:55:28;95366.78;;;19.41;32.14
22257;BME280;11297;42.686;23.374;2023-02-19T07:57:54;95372.91;;;19.82;31.71
22257;BME280;11297;42.686;23.374;2023-02-19T08:00:19;95381.16;;;20.00;31.26
22257;BME280;11297;42.686;23.374;2023-02-19T08:02:45;95374.06;;;20.22;31.30
22257;BME280;11297;42.686;23.374;2023-02-19T08:05:27;95387.81;;;20.76;30.42
22257;BME280;11297;42.686;23.374;2023-02-19T08:07:52;95377.81;;;21.11;30.05
22257;BME280;11297;42.686;23.374;2023-02-19T08:10:18;95381.81;;;21.27;29.92
22257;BME280;11297;42.686;23.374;2023-02-19T08:13:02;95376.63;;;21.34;29.65
22257;BME280;11297;42.686;23.374;2023-02-19T08:15:54;95371.47;;;21.70;29.53
22257;BME280;11297;42.686;23.374;2023-02-19T08:18:22;95373.44;;;21.76;29.08
22257;BME280;11297;42.686;23.374;2023-02-19T08:20:48;95367.88;;;21.56;29.00
22257;BME280;11297;42.686;23.374;2023-02-19T08:23:14;95374.56;;;21.75;28.97
22257;BME280;11297;42.686;23.374;2023-02-19T08:25:40;95377.84;;;21.65;29.08
22257;BME280;11297;42.686;23.374;2023-02-19T08:28:06;95370.16;;;21.57;31.65
22257;BME280;11297;42.686;23.374;2023-02-19T08:30:32;95361.41;;;21.82;29.98
22257;BME280;11297;42.686;23.374;2023-02-19T08:32:59;95361.22;;;21.98;31.56
22257;BME280;11297;42.686;23.374;2023-02-19T08:35:26;95375.38;;;22.12;30.48
22257;BME280;11297;42.686;23.374;2023-02-19T08:37:54;95372.59;;;22.02;30.05
22257;BME280;11297;42.686;23.374;2023-02-19T08:40:19;95373.19;;;21.88;31.14
22257;BME280;11297;42.686;23.374;2023-02-19T08:42:45;95377.41;;;21.34;32.96
22257;BME280;11297;42.686;23.374;2023-02-19T08:45:10;95363.13;;;21.68;32.25
22257;BME280;11297;42.686;23.374;2023-02-19T08:47:36;95358.81;;;21.86;31.34
22257;BME280;11297;42.686;23.374;2023-02-19T08:50:03;95354.47;;;21.71;29.45
22257;BME280;11297;42.686;23.374;2023-02-19T08:52:29;95348.66;;;22.24;31.68
22257;BME280;11297;42.686;23.374;2023-02-19T08:54:54;95345.88;;;22.50;32.35
22257;BME280;11297;42.686;23.374;2023-02-19T08:57:21;95339.59;;;22.25;30.88
22257;BME280;11297;42.686;23.374;2023-02-19T08:59:47;95345.28;;;21.91;32.56
22257;BME280;11297;42.686;23.374;2023-02-19T09:02:12;95347.06;;;21.83;30.47
22257;BME280;11297;42.686;23.374;2023-02-19T09:04:38;95333.88;;;21.87;33.18
22257;BME280;11297;42.686;23.374;2023-02-19T09:07:04;95334.09;;;22.08;30.56
22257;BME280;11297;42.686;23.374;2023-02-19T09:09:32;95334.31;;;21.92;31.97
22257;BME280;11297;42.686;23.374;2023-02-19T09:11:58;95320.41;;;22.02;30.07
22257;BME280;11297;42.686;23.374;2023-02-19T09:14:23;95323.41;;;22.33;31.44
22257;BME280;11297;42.686;23.374;2023-02-19T09:16:49;95316.00;;;22.49;30.30
22257;BME280;11297;42.686;23.374;2023-02-19T09:19:14;95301.03;;;22.27;31.08
22257;BME280;11297;42.686;23.374;2023-02-19T09:21:41;95307.78;;;22.64;29.82
22257;BME280;11297;42.686;23.374;2023-02-19T09:24:09;95304.22;;;22.93;32.74
22257;BME280;11297;42.686;23.374;2023-02-19T09:26:35;95289.44;;;22.92;30.28
22257;BME280;11297;42.686;23.374;2023-02-19T09:29:00;95307.44;;;22.69;30.71
22257;BME280;11297;42.686;23.374;2023-02-19T09:31:26;95297.47;;;22.13;31.20
22257;BME280;11297;42.686;23.374;2023-02-19T09:33:51;95291.09;;;22.17;33.60
22257;BME280;11297;42.686;23.374;2023-02-19T09:36:16;95298.94;;;22.07;32.66
22257;BME280;11297;42.686;23.374;2023-02-19T09:38:43;95293.09;;;21.91;32.26
22257;BME280;11297;42.686;23.374;2023-02-19T09:41:49;95305.13;;;21.85;33.30
22257;BME280;11297;42.686;23.374;2023-02-19T09:44:11;95297.75;;;21.39;34.28
22257;BME280;11297;42.686;23.374;2023-02-19T09:46:43;95295.44;;;21.63;33.39
22257;BME280;11297;42.686;23.374;2023-02-19T09:49:14;95308.09;;;21.48;31.88
22257;BME280;11297;42.686;23.374;2023-02-19T09:51:44;95293.06;;;22.24;33.63
22257;BME280;11297;42.686;23.374;2023-02-19T09:54:19;95296.66;;;22.45;34.18
22257;BME280;11297;42.686;23.374;2023-02-19T09:56:45;95299.59;;;21.97;31.13
22257;BME280;11297;42.686;23.374;2023-02-19T09:59:18;95282.47;;;22.24;34.96
22257;BME280;11297;42.686;23.374;2023-02-19T10:01:46;95281.72;;;22.23;38.10
22257;BME280;11297;42.686;23.374;2023-02-19T10:04:13;95273.25;;;22.11;32.63
22257;BME280;11297;42.686;23.374;2023-02-19T10:06:38;95266.38;;;22.03;38.42
22257;BME280;11297;42.686;23.374;2023-02-19T10:09:20;95263.81;;;22.10;37.05
22257;BME280;11297;42.686;23.374;2023-02-19T10:11:48;95229.97;;;21.54;32.49
22257;BME280;11297;42.686;23.374;2023-02-19T10:17:03;95237.69;;;22.08;36.64
22257;BME280;11297;42.686;23.374;2023-02-19T10:19:29;95238.38;;;22.42;35.81
22257;BME280;11297;42.686;23.374;2023-02-19T10:21:55;95224.63;;;22.26;31.75
22257;BME280;11297;42.686;23.374;2023-02-19T10:24:25;95224.44;;;22.52;35.80
22257;BME280;11297;42.686;23.374;2023-02-19T10:26:51;95221.88;;;22.62;32.10
22257;BME280;11297;42.686;23.374;2023-02-19T10:29:17;95212.69;;;22.49;32.13
22257;BME280;11297;42.686;23.374;2023-02-19T10:31:43;95216.16;;;22.57;33.52
22257;BME280;11297;42.686;23.374;2023-02-19T10:34:17;95202.09;;;22.49;32.15
22257;BME280;11297;42.686;23.374;2023-02-19T10:36:46;95191.44;;;22.42;28.92
22257;BME280;11297;42.686;23.374;2023-02-19T10:41:47;95182.25;;;22.22;28.67
22257;BME280;11297;42.686;23.374;2023-02-19T10:44:17;95176.63;;;22.31;28.18
22257;BME280;11297;42.686;23.374;2023-02-19T10:46:48;95174.94;;;22.12;28.46
22257;BME280;11297;42.686;23.374;2023-02-19T10:49:24;95166.31;;;22.19;28.31
22257;BME280;11297;42.686;23.374;2023-02-19T10:51:54;95168.63;;;22.24;28.49
22257;BME280;11297;42.686;23.374;2023-02-19T10:56:48;95165.53;;;22.18;28.28
22257;BME280;11297;42.686;23.374;2023-02-19T10:59:22;95153.09;;;22.19;28.20
22257;BME280;11297;42.686;23.374;2023-02-19T11:02:00;95153.31;;;22.50;27.95
22257;BME280;11297;42.686;23.374;2023-02-19T11:04:28;95142.31;;;22.48;27.73
22257;BME280;11297;42.686;23.374;2023-02-19T11:07:06;95136.81;;;22.20;28.02
22257;BME280;11297;42.686;23.374;2023-02-19T11:09:39;95134.19;;;21.74;29.02
22257;BME280;11297;42.686;23.374;2023-02-19T11:12:08;95127.88;;;21.85;28.83
22257;BME280;11297;42.686;23.374;2023-02-19T11:14:34;95132.06;;;21.90;28.23
22257;BME280;11297;42.686;23.374;2023-02-19T11:17:01;95128.22;;;21.80;28.35
22257;BME280;11297;42.686;23.374;2023-02-19T11:21:58;95112.00;;;21.89;28.51
22257;BME280;11297;42.686;23.374;2023-02-19T11:24:35;95109.34;;;21.85;28.36
22257;BME280;11297;42.686;23.374;2023-02-19T11:27:06;95106.03;;;21.95;28.09
22257;BME280;11297;42.686;23.374;2023-02-19T11:29:40;95078.53;;;22.13;28.43
22257;BME280;11297;42.686;23.374;2023-02-19T11:34:46;95091.94;;;21.84;29.23
22257;BME280;11297;42.686;23.374;2023-02-19T11:37:17;95084.19;;;21.59;29.06
22257;BME280;11297;42.686;23.374;2023-02-19T11:39:47;95081.25;;;21.67;28.83
22257;BME280;11297;42.686;23.374;2023-02-19T11:42:37;95070.34;;;21.75;29.26
22257;BME280;11297;42.686;23.374;2023-02-19T11:45:23;95070.16;;;22.01;28.30
22257;BME280;11297;42.686;23.374;2023-02-19T11:53:34;95060.03;;;21.63;28.75
22257;BME280;11297;42.686;23.374;2023-02-19T12:02:13;95042.50;;;21.42;28.83
22257;BME280;11297;42.686;23.374;2023-02-19T12:12:59;95019.75;;;21.34;28.43
22257;BME280;11297;42.686;23.374;2023-02-19T12:21:19;95008.34;;;21.26;28.39
22257;BME280;11297;42.686;23.374;2023-02-19T12:26:29;94998.03;;;21.11;28.89
22257;BME280;11297;42.686;23.374;2023-02-19T12:32:25;94983.63;;;21.02;28.33
22257;BME280;11297;42.686;23.374;2023-02-19T12:35:07;94972.88;;;20.84;28.84
22257;BME280;11297;42.686;23.374;2023-02-19T12:43:39;94959.00;;;20.55;29.05
22257;BME280;11297;42.686;23.374;2023-02-19T12:46:17;94955.53;;;20.47;28.66
22257;BME280;11297;42.686;23.374;2023-02-19T12:48:56;94941.94;;;20.45;28.52
22257;BME280;11297;42.686;23.374;2023-02-19T12:51:48;94939.66;;;20.44;28.39
22257;BME280;11297;42.686;23.374;2023-02-19T12:57:15;94923.84;;;20.47;28.83
22257;BME280;11297;42.686;23.374;2023-02-19T12:59:59;94932.50;;;20.44;30.31
22257;BME280;11297;42.686;23.374;2023-02-19T13:02:45;94929.47;;;20.46;29.38
22257;BME280;11297;42.686;23.374;2023-02-19T13:08:02;94916.31;;;20.49;28.58
22257;BME280;11297;42.686;23.374;2023-02-19T13:12:57;94905.66;;;20.39;29.15
22257;BME280;11297;42.686;23.374;2023-02-19T13:17:56;94904.06;;;20.31;29.74
22257;BME280;11297;42.686;23.374;2023-02-19T13:20:39;94900.81;;;20.08;29.88
22257;BME280;11297;42.686;23.374;2023-02-19T13:29:01;94888.09;;;20.17;30.18
22257;BME280;11297;42.686;23.374;2023-02-19T13:36:57;94867.88;;;20.31;29.43
22257;BME280;11297;42.686;23.374;2023-02-19T13:39:23;94873.88;;;20.28;29.70
22257;BME280;11297;42.686;23.374;2023-02-19T13:41:53;94870.38;;;20.17;29.42
22257;BME280;11297;42.686;23.374;2023-02-19T13:44:25;94867.75;;;20.17;29.54
22257;BME280;11297;42.686;23.374;2023-02-19T13:46:51;94869.91;;;20.05;29.37
22257;BME280;11297;42.686;23.374;2023-02-19T13:51:53;94862.69;;;20.02;29.70
22257;BME280;11297;42.686;23.374;2023-02-19T13:54:30;94867.22;;;20.02;29.64
22257;BME280;11297;42.686;23.374;2023-02-19T13:59:57;94857.31;;;19.92;29.98
22257;BME280;11297;42.686;23.374;2023-02-19T14:02:24;94858.88;;;19.96;29.84
22257;BME280;11297;42.686;23.374;2023-02-19T14:04:56;94859.91;;;19.88;29.74
22257;BME280;11297;42.686;23.374;2023-02-19T14:09:50;94845.69;;;19.96;29.76
22257;BME280;11297;42.686;23.374;2023-02-19T14:14:51;94842.66;;;19.94;29.64
22257;BME280;11297;42.686;23.374;2023-02-19T14:31:07;94827.25;;;20.00;29.66
22257;BME280;11297;42.686;23.374;2023-02-19T14:33:37;94834.53;;;20.10;29.49
22257;BME280;11297;42.686;23.374;2023-02-19T14:36:23;94824.34;;;20.12;30.41
22257;BME280;11297;42.686;23.374;2023-02-19T14:38:53;94826.31;;;20.18;30.66
22257;BME280;11297;42.686;23.374;2023-02-19T14:41:19;94823.34;;;20.26;30.51
22257;BME280;11297;42.686;23.374;2023-02-19T14:43:49;94814.69;;;20.22;30.77
22257;BME280;11297;42.686;23.374;2023-02-19T14:46:31;94808.22;;;20.20;30.50
22257;BME280;11297;42.686;23.374;2023-02-19T14:49:04;94806.69;;;20.15;30.31
22257;BME280;11297;42.686;23.374;2023-02-19T14:51:41;94815.41;;;20.19;30.58
22257;BME280;11297;42.686;23.374;2023-02-19T14:54:20;94814.25;;;20.20;30.42
22257;BME280;11297;42.686;23.374;2023-02-19T14:56:58;94812.72;;;20.16;30.96